Time;durP1;ratioP1;P1;durP2;ratioP2;P2;SDS_P1;SDS_P2;PMS_P1;PMS_P2;Temp;Humidity;BMP_temperature;BMP_pressure;BME280_temperature;BME280_humidity;BME280_pressure;Samples;Min_cycle;Max_cycle;Signal;HPM_P1;HPM_P2
2022/06/25 00:01:27;;;;;;;9.40;8.68;;;;;;;;;;5025882;28;20033;-76
2022/06/25 00:03:53;;;;;;;9.18;8.50;;;;;;;;;;5027334;28;20037;-76
2022/06/25 00:06:20;;;;;;;8.98;8.38;;;;;;;;;;5027896;28;20064;-76
2022/06/25 00:08:46;;;;;;;8.50;8.00;;;;;;;;;;5030357;28;20029;-76
2022/06/25 00:12:31;;;;;;;9.18;8.45;;;;;;;;;;5032232;28;20033;-76
2022/06/25 00:13:58;;;;;;;9.00;8.30;;;;;;;;;;5032240;28;20033;-76
2022/06/25 00:16:24;;;;;;;9.30;8.48;;;;;;;;;;5031418;28;20040;-76
2022/06/25 00:18:50;;;;;;;9.75;8.85;;;;;;;;;;5031924;28;20440;-76
2022/06/25 00:21:15;;;;;;;9.70;8.82;;;;;;;;;;5031344;28;20041;-76
2022/06/25 00:23:41;;;;;;;9.43;8.73;;;;;;;;;;5030053;28;20029;-76
2022/06/25 00:26:06;;;;;;;9.77;8.88;;;;;;;;;;5029187;28;20033;-76
2022/06/25 00:28:32;;;;;;;9.10;8.23;;;;;;;;;;5036827;28;20473;-76
2022/06/25 00:30:58;;;;;;;8.20;7.68;;;;;;;;;;5028653;28;20030;-77
2022/06/25 00:33:23;;;;;;;8.60;7.88;;;;;;;;;;5026781;28;20032;-76
2022/06/25 00:35:49;;;;;;;8.48;7.95;;;;;;;;;;5035010;28;20041;-76
2022/06/25 00:38:14;;;;;;;10.50;8.13;;;;;;;;;;5030431;28;20029;-76
2022/06/25 00:40:40;;;;;;;8.60;7.95;;;;;;;;;;5036157;28;20033;-76
2022/06/25 00:43:06;;;;;;;9.20;8.10;;;;;;;;;;5017616;28;20025;-76
2022/06/25 00:45:32;;;;;;;8.98;8.25;;;;;;;;;;5001994;28;20562;-75
2022/06/25 00:47:58;;;;;;;9.10;8.40;;;;;;;;;;5035660;28;20036;-75
2022/06/25 00:50:23;;;;;;;9.20;8.50;;;;;;;;;;5031752;28;20104;-75
2022/06/25 00:52:52;;;;;;;8.90;8.30;;;;;;;;;;5034741;28;20041;-77
2022/06/25 00:55:20;;;;;;;9.50;8.70;;;;;;;;;;5030865;28;20544;-77
2022/06/25 00:57:49;;;;;;;9.32;8.43;;;;;;;;;;5031848;28;20102;-76
2022/06/25 01:00:17;;;;;;;9.27;8.48;;;;;;;;;;5030584;28;20408;-77
2022/06/25 01:02:44;;;;;;;13.35;8.60;;;;;;;;;;5017321;28;20029;-76
2022/06/25 01:05:11;;;;;;;9.07;8.30;;;;;;;;;;5017673;28;20029;-76
2022/06/25 01:07:39;;;;;;;9.50;8.70;;;;;;;;;;5025757;28;20032;-76
2022/06/25 01:10:06;;;;;;;8.80;8.13;;;;;;;;;;5006451;28;20484;-77
2022/06/25 01:12:33;;;;;;;9.10;8.30;;;;;;;;;;5026131;28;20052;-76
2022/06/25 01:15:09;;;;;;;9.10;8.18;;;;;;;;;;5020723;28;20119;-76
2022/06/25 01:17:51;;;;;;;9.05;8.30;;;;;;;;;;5039202;28;20066;-77
2022/06/25 01:20:20;;;;;;;9.02;8.23;;;;;;;;;;5027639;28;20087;-77
2022/06/25 01:22:47;;;;;;;9.00;8.40;;;;;;;;;;5024071;28;20025;-77
2022/06/25 01:25:15;;;;;;;9.20;8.40;;;;;;;;;;5023625;28;20091;-76
2022/06/25 01:27:41;;;;;;;9.05;8.20;;;;;;;;;;5025415;28;20072;-77
2022/06/25 01:30:09;;;;;;;9.65;8.88;;;;;;;;;;5025100;28;20022;-77
2022/06/25 01:32:35;;;;;;;9.43;8.55;;;;;;;;;;5025476;28;20063;-77
2022/06/25 01:35:01;;;;;;;8.80;8.20;;;;;;;;;;5032250;28;20464;-77
2022/06/25 01:37:27;;;;;;;8.80;8.20;;;;;;;;;;5022713;28;20078;-77
2022/06/25 01:39:57;;;;;;;8.60;8.05;;;;;;;;;;5026502;28;20079;-77
2022/06/25 01:45:10;;;;;;;8.75;7.95;;;;;;;;;;5021877;28;20083;-77
2022/06/25 01:47:37;;;;;;;8.55;7.93;;;;;;;;;;5027308;28;20697;-76
2022/06/25 01:50:03;;;;;;;9.65;8.73;;;;;;;;;;5024876;28;20041;-77
2022/06/25 01:52:28;;;;;;;8.82;8.23;;;;;;;;;;5024460;28;20034;-76
2022/06/25 01:54:54;;;;;;;8.95;8.32;;;;;;;;;;5021030;28;20109;-76
2022/06/25 01:57:20;;;;;;;8.88;8.05;;;;;;;;;;5026404;28;20037;-76
2022/06/25 01:59:47;;;;;;;9.43;8.73;;;;;;;;;;5024781;28;20061;-76
2022/06/25 02:02:13;;;;;;;9.40;8.63;;;;;;;;;;5027371;28;20029;-77
2022/06/25 02:04:39;;;;;;;9.13;8.52;;;;;;;;;;5023079;28;20061;-76
2022/06/25 02:07:05;;;;;;;9.25;8.55;;;;;;;;;;5017982;28;20033;-76
2022/06/25 02:09:35;;;;;;;8.93;8.13;;;;;;;;;;5029632;28;20108;-76
2022/06/25 02:12:03;;;;;;;8.80;8.13;;;;;;;;;;5017347;28;20448;-76
2022/06/25 02:14:28;;;;;;;10.10;8.35;;;;;;;;;;5026385;28;20038;-77
2022/06/25 02:16:56;;;;;;;8.73;8.13;;;;;;;;;;5025774;28;20037;-76
2022/06/25 02:19:22;;;;;;;9.27;8.50;;;;;;;;;;5027823;28;20052;-77
2022/06/25 02:21:48;;;;;;;8.95;8.20;;;;;;;;;;5027946;28;20404;-77
2022/06/25 02:24:15;;;;;;;9.43;8.63;;;;;;;;;;5024305;28;20028;-77
2022/06/25 02:26:41;;;;;;;8.13;7.63;;;;;;;;;;5026431;28;20041;-76
2022/06/25 02:29:07;;;;;;;9.65;8.35;;;;;;;;;;5026472;28;20041;-77
2022/06/25 02:31:32;;;;;;;9.30;8.50;;;;;;;;;;5025821;28;20124;-76
2022/06/25 02:33:58;;;;;;;8.82;8.10;;;;;;;;;;5026899;28;20052;-76
2022/06/25 02:36:25;;;;;;;10.77;8.30;;;;;;;;;;5009932;28;20049;-77
2022/06/25 02:38:50;;;;;;;9.20;8.45;;;;;;;;;;5027609;28;20034;-77
2022/06/25 02:41:16;;;;;;;9.82;8.10;;;;;;;;;;5022778;28;20033;-78
2022/06/25 02:43:43;;;;;;;9.30;8.52;;;;;;;;;;5007932;28;20029;-77
2022/06/25 02:46:26;;;;;;;9.85;9.00;;;;;;;;;;5025730;28;20076;-76
2022/06/25 02:48:54;;;;;;;9.00;8.40;;;;;;;;;;5026409;28;20057;-77
2022/06/25 02:51:21;;;;;;;9.20;8.30;;;;;;;;;;5026285;28;20132;-77
2022/06/25 02:53:46;;;;;;;9.30;8.60;;;;;;;;;;5008079;28;20124;-78
2022/06/25 02:58:58;;;;;;;9.60;8.77;;;;;;;;;;5009626;28;20045;-77
2022/06/25 03:01:37;;;;;;;9.18;8.45;;;;;;;;;;5011422;28;20038;-76
2022/06/25 03:04:03;;;;;;;9.20;8.48;;;;;;;;;;5024372;28;20524;-77
2022/06/25 03:06:29;;;;;;;9.32;8.63;;;;;;;;;;5037383;28;20029;-77
2022/06/25 03:08:56;;;;;;;9.77;8.80;;;;;;;;;;5027154;28;20037;-77
2022/06/25 03:11:21;;;;;;;9.38;8.68;;;;;;;;;;5024218;28;20065;-77
2022/06/25 03:13:49;;;;;;;10.80;8.70;;;;;;;;;;5040034;28;20041;-77
2022/06/25 03:16:15;;;;;;;10.55;9.38;;;;;;;;;;5025893;28;20033;-77
2022/06/25 03:18:41;;;;;;;9.48;8.88;;;;;;;;;;5023418;28;20485;-77
2022/06/25 03:21:12;;;;;;;9.77;8.95;;;;;;;;;;5026971;28;20037;-77
2022/06/25 03:23:40;;;;;;;9.48;8.85;;;;;;;;;;5025600;28;20037;-78
2022/06/25 03:26:06;;;;;;;9.80;9.05;;;;;;;;;;5024633;28;20037;-77
2022/06/25 03:28:32;;;;;;;10.10;9.20;;;;;;;;;;5025264;28;20041;-77
2022/06/25 03:30:58;;;;;;;10.63;9.57;;;;;;;;;;5026002;28;20040;-77
2022/06/25 03:33:25;;;;;;;10.18;9.43;;;;;;;;;;5025394;28;20045;-77
2022/06/25 03:36:10;;;;;;;10.95;9.65;;;;;;;;;;5024217;28;20037;-77
2022/06/25 03:38:41;;;;;;;10.93;9.85;;;;;;;;;;5025353;28;20064;-77
2022/06/25 03:43:54;;;;;;;10.25;9.38;;;;;;;;;;5025075;28;20818;-77
2022/06/25 03:46:20;;;;;;;10.57;9.70;;;;;;;;;;5025621;28;20033;-77
2022/06/25 03:48:46;;;;;;;10.20;9.40;;;;;;;;;;5025270;28;20040;-77
2022/06/25 03:51:23;;;;;;;10.93;10.00;;;;;;;;;;5020775;28;20041;-77
2022/06/25 03:53:48;;;;;;;10.27;9.50;;;;;;;;;;5034858;28;20048;-77
2022/06/25 03:56:14;;;;;;;9.93;9.23;;;;;;;;;;5033212;28;20041;-77
2022/06/25 03:58:43;;;;;;;10.18;9.48;;;;;;;;;;5027806;28;20068;-77
2022/06/25 04:01:09;;;;;;;9.98;9.18;;;;;;;;;;5012849;28;20029;-77
2022/06/25 04:03:35;;;;;;;10.20;9.43;;;;;;;;;;5028950;28;20040;-77
2022/06/25 04:06:09;;;;;;;9.77;9.07;;;;;;;;;;5029672;28;20575;-77
2022/06/25 04:08:40;;;;;;;9.93;9.13;;;;;;;;;;5005649;28;20033;-77
2022/06/25 04:11:09;;;;;;;10.50;9.48;;;;;;;;;;5029098;28;20034;-77
2022/06/25 04:13:40;;;;;;;10.38;9.48;;;;;;;;;;5035018;28;20044;-77
2022/06/25 04:16:06;;;;;;;9.82;9.13;;;;;;;;;;5029138;28;20030;-77
2022/06/25 04:18:32;;;;;;;9.95;9.15;;;;;;;;;;5022393;28;20052;-77
2022/06/25 04:20:59;;;;;;;9.52;8.82;;;;;;;;;;5031570;28;20060;-77
2022/06/25 04:23:25;;;;;;;9.02;8.32;;;;;;;;;;5006417;28;20045;-76
2022/06/25 04:25:51;;;;;;;9.15;8.55;;;;;;;;;;5025916;28;20150;-77
2022/06/25 04:31:15;;;;;;;9.53;8.73;;;;;;;;;;5026254;28;20029;-77
2022/06/25 04:33:42;;;;;;;9.57;8.98;;;;;;;;;;5027100;28;20347;-77
2022/06/25 04:36:08;;;;;;;8.82;8.13;;;;;;;;;;5025221;28;20485;-77
2022/06/25 04:38:44;;;;;;;9.32;8.73;;;;;;;;;;5012155;28;20037;-77
2022/06/25 04:41:10;;;;;;;8.82;8.32;;;;;;;;;;5024003;28;20045;-77
2022/06/25 04:43:36;;;;;;;10.18;8.15;;;;;;;;;;5028952;28;20040;-77
2022/06/25 04:46:07;;;;;;;8.45;7.85;;;;;;;;;;5027610;28;20498;-77
2022/06/25 04:48:37;;;;;;;9.30;8.60;;;;;;;;;;5013714;28;20045;-77
2022/06/25 04:51:12;;;;;;;9.25;8.55;;;;;;;;;;5022687;28;20037;-77
2022/06/25 04:53:55;;;;;;;8.32;7.72;;;;;;;;;;5025709;28;20037;-77
2022/06/25 04:56:28;;;;;;;8.35;7.75;;;;;;;;;;5033860;28;20037;-77
2022/06/25 04:58:56;;;;;;;8.32;7.82;;;;;;;;;;5022879;28;20092;-77
2022/06/25 05:01:40;;;;;;;8.75;7.90;;;;;;;;;;5023980;28;20473;-77
2022/06/25 05:04:06;;;;;;;9.13;8.43;;;;;;;;;;5026286;28;20037;-77
2022/06/25 05:06:32;;;;;;;10.32;8.13;;;;;;;;;;5026436;28;20057;-77
2022/06/25 05:08:58;;;;;;;9.27;8.57;;;;;;;;;;5028438;28;20566;-77
2022/06/25 05:11:23;;;;;;;11.48;7.97;;;;;;;;;;5026321;28;20026;-77
2022/06/25 05:13:50;;;;;;;8.52;8.02;;;;;;;;;;5026309;28;20090;-77
2022/06/25 05:16:17;;;;;;;8.35;7.85;;;;;;;;;;5025943;28;20042;-77
2022/06/25 05:18:44;;;;;;;7.80;7.30;;;;;;;;;;5021312;28;20085;-76
2022/06/25 05:21:10;;;;;;;8.27;7.50;;;;;;;;;;5027749;28;20532;-77
2022/06/25 05:23:36;;;;;;;8.88;7.18;;;;;;;;;;5024084;28;20037;-77
2022/06/25 05:26:02;;;;;;;8.93;8.10;;;;;;;;;;5028282;28;20045;-77
2022/06/25 05:28:28;;;;;;;8.40;7.78;;;;;;;;;;5026375;28;20082;-77
2022/06/25 05:30:53;;;;;;;7.72;7.22;;;;;;;;;;5025885;28;20120;-77
2022/06/25 05:33:20;;;;;;;7.43;6.93;;;;;;;;;;5020058;28;20440;-77
2022/06/25 05:35:46;;;;;;;8.13;7.35;;;;;;;;;;5025025;28;20159;-77
2022/06/25 05:38:12;;;;;;;7.70;7.00;;;;;;;;;;5026624;28;20073;-77
2022/06/25 05:40:39;;;;;;;8.02;7.35;;;;;;;;;;5036749;28;20032;-77
2022/06/25 05:43:04;;;;;;;8.00;7.40;;;;;;;;;;5028390;28;20037;-77
2022/06/25 05:45:30;;;;;;;7.85;7.25;;;;;;;;;;5027208;28;20035;-78
2022/06/25 05:47:56;;;;;;;7.50;7.03;;;;;;;;;;5028735;28;20542;-78
2022/06/25 05:50:21;;;;;;;7.70;7.20;;;;;;;;;;5024175;28;20033;-77
2022/06/25 05:52:47;;;;;;;8.95;7.40;;;;;;;;;;5027939;28;20477;-77
2022/06/25 05:55:13;;;;;;;7.88;7.22;;;;;;;;;;5027327;28;20076;-77
2022/06/25 05:57:39;;;;;;;7.55;7.05;;;;;;;;;;5027321;28;20112;-77
2022/06/25 06:00:05;;;;;;;7.32;6.88;;;;;;;;;;5028153;28;20119;-78
2022/06/25 06:02:38;;;;;;;7.40;6.88;;;;;;;;;;5031898;28;20046;-78
2022/06/25 06:05:04;;;;;;;7.35;6.85;;;;;;;;;;5029677;28;20084;-78
2022/06/25 06:07:29;;;;;;;8.02;7.10;;;;;;;;;;5033664;28;20044;-78
2022/06/25 06:09:55;;;;;;;7.15;6.60;;;;;;;;;;5045466;28;20025;-78
2022/06/25 06:12:20;;;;;;;7.90;7.13;;;;;;;;;;5037649;28;20461;-78
2022/06/25 06:14:46;;;;;;;7.60;7.10;;;;;;;;;;5029597;28;20044;-78
2022/06/25 06:17:12;;;;;;;7.22;6.68;;;;;;;;;;5024889;28;20117;-78
2022/06/25 06:19:37;;;;;;;7.25;6.75;;;;;;;;;;5034153;28;20029;-78
2022/06/25 06:22:03;;;;;;;7.15;6.55;;;;;;;;;;5026932;28;20033;-75
2022/06/25 06:24:29;;;;;;;7.00;6.50;;;;;;;;;;5025177;28;20124;-75
2022/06/25 06:26:55;;;;;;;6.85;6.45;;;;;;;;;;5023473;28;20041;-75
2022/06/25 06:29:20;;;;;;;6.85;6.35;;;;;;;;;;5023275;28;20040;-75
2022/06/25 06:31:46;;;;;;;7.15;6.47;;;;;;;;;;5022712;28;20029;-75
2022/06/25 06:34:12;;;;;;;7.50;6.90;;;;;;;;;;5027751;28;20037;-75
2022/06/25 06:36:37;;;;;;;6.57;6.07;;;;;;;;;;5032253;28;20061;-75
2022/06/25 06:39:03;;;;;;;6.45;6.05;;;;;;;;;;5024388;28;20697;-75
2022/06/25 06:41:28;;;;;;;6.97;6.32;;;;;;;;;;5020435;28;20053;-75
2022/06/25 06:43:54;;;;;;;6.18;5.63;;;;;;;;;;5029404;28;20099;-75
2022/06/25 06:46:20;;;;;;;6.00;5.70;;;;;;;;;;5020033;28;20067;-75
2022/06/25 06:48:45;;;;;;;6.55;5.97;;;;;;;;;;5027645;28;20416;-76
2022/06/25 06:51:11;;;;;;;6.07;5.57;;;;;;;;;;5022628;28;20080;-76
2022/06/25 06:53:36;;;;;;;5.80;5.50;;;;;;;;;;5026832;28;20540;-75
2022/06/25 06:56:02;;;;;;;5.78;5.47;;;;;;;;;;5022931;28;20099;-75
2022/06/25 06:58:29;;;;;;;6.10;5.60;;;;;;;;;;5026659;28;20043;-75
2022/06/25 07:00:55;;;;;;;5.75;5.35;;;;;;;;;;5023335;28;20030;-75
2022/06/25 07:03:21;;;;;;;5.80;5.43;;;;;;;;;;5023624;28;20089;-75
2022/06/25 07:05:47;;;;;;;5.60;5.20;;;;;;;;;;5021993;28;20061;-75
2022/06/25 07:08:21;;;;;;;5.43;4.93;;;;;;;;;;5024897;28;20119;-75
2022/06/25 07:10:48;;;;;;;5.47;5.18;;;;;;;;;;5023656;28;20500;-75
2022/06/25 07:13:13;;;;;;;5.25;4.88;;;;;;;;;;5023008;28;20105;-74
2022/06/25 07:15:39;;;;;;;5.22;4.93;;;;;;;;;;5025569;28;20112;-74
2022/06/25 07:18:05;;;;;;;5.20;4.70;;;;;;;;;;5027723;28;20030;-75
2022/06/25 07:20:31;;;;;;;5.15;4.72;;;;;;;;;;5022313;28;20033;-74
2022/06/25 07:22:57;;;;;;;5.28;4.88;;;;;;;;;;5023168;28;20037;-75
2022/06/25 07:25:22;;;;;;;4.95;4.70;;;;;;;;;;5026818;28;20508;-74
2022/06/25 07:27:48;;;;;;;5.22;4.82;;;;;;;;;;5020215;28;20691;-75
2022/06/25 07:30:15;;;;;;;5.40;5.00;;;;;;;;;;5024887;28;20026;-74
2022/06/25 07:32:41;;;;;;;5.18;4.80;;;;;;;;;;5029397;28;20032;-74
2022/06/25 07:35:07;;;;;;;5.28;4.88;;;;;;;;;;5026384;28;20030;-74
2022/06/25 07:37:33;;;;;;;5.22;4.82;;;;;;;;;;5027528;28;20077;-75
2022/06/25 07:39:58;;;;;;;4.90;4.50;;;;;;;;;;5029807;28;20129;-74
2022/06/25 07:42:24;;;;;;;4.60;4.20;;;;;;;;;;5026242;28;20404;-74
2022/06/25 07:44:50;;;;;;;4.90;4.50;;;;;;;;;;5024669;28;20034;-74
2022/06/25 07:47:16;;;;;;;5.32;4.82;;;;;;;;;;5026026;28;20049;-75
2022/06/25 07:52:26;;;;;;;5.13;4.72;;;;;;;;;;5030264;28;20041;-74
2022/06/25 07:54:52;;;;;;;5.50;5.20;;;;;;;;;;5028586;28;20026;-73
2022/06/25 07:57:18;;;;;;;5.55;5.00;;;;;;;;;;5024488;28;20501;-74
2022/06/25 07:59:44;;;;;;;5.32;5.03;;;;;;;;;;5031598;28;20576;-74
2022/06/25 08:02:09;;;;;;;6.35;4.40;;;;;;;;;;5028044;28;20559;-73
2022/06/25 08:04:35;;;;;;;5.00;4.60;;;;;;;;;;5022432;28;20033;-73
2022/06/25 08:07:00;;;;;;;4.70;4.38;;;;;;;;;;5027732;28;20333;-73
2022/06/25 08:09:26;;;;;;;4.72;4.43;;;;;;;;;;5034578;28;20068;-73
2022/06/25 08:11:52;;;;;;;5.50;4.43;;;;;;;;;;5026532;28;20412;-73
2022/06/25 08:14:18;;;;;;;5.28;4.30;;;;;;;;;;5026594;28;20123;-73
2022/06/25 08:16:43;;;;;;;4.90;4.50;;;;;;;;;;5026746;28;20117;-74
2022/06/25 08:19:09;;;;;;;4.93;4.50;;;;;;;;;;5027771;28;20548;-74
2022/06/25 08:21:35;;;;;;;5.07;4.68;;;;;;;;;;5022578;28;20044;-74
2022/06/25 08:24:00;;;;;;;5.15;4.75;;;;;;;;;;5028177;28;20573;-74
2022/06/25 08:26:26;;;;;;;4.80;4.40;;;;;;;;;;5032717;28;20108;-73
2022/06/25 08:28:52;;;;;;;5.10;4.70;;;;;;;;;;5032144;28;20108;-73
2022/06/25 08:31:17;;;;;;;4.43;4.07;;;;;;;;;;5037069;28;20133;-74
2022/06/25 08:33:43;;;;;;;4.60;4.30;;;;;;;;;;5027722;28;20056;-74
2022/06/25 08:36:08;;;;;;;4.78;4.40;;;;;;;;;;5034534;28;20033;-74
2022/06/25 08:38:34;;;;;;;4.85;4.47;;;;;;;;;;5030844;28;20064;-74
2022/06/25 08:41:01;;;;;;;4.53;4.22;;;;;;;;;;5025025;28;20038;-73
2022/06/25 08:43:27;;;;;;;5.45;4.25;;;;;;;;;;5027402;28;20038;-74
2022/06/25 08:45:55;;;;;;;5.65;4.55;;;;;;;;;;5029225;28;20037;-75
2022/06/25 08:48:29;;;;;;;4.30;4.10;;;;;;;;;;5024426;28;20405;-74
2022/06/25 08:50:55;;;;;;;4.60;4.30;;;;;;;;;;5026052;28;20033;-74
2022/06/25 08:53:21;;;;;;;4.93;4.53;;;;;;;;;;5026544;28;20041;-74
2022/06/25 08:55:47;;;;;;;4.90;4.50;;;;;;;;;;5024851;28;20037;-74
2022/06/25 08:58:13;;;;;;;4.72;4.40;;;;;;;;;;5025253;28;20635;-74
2022/06/25 09:00:41;;;;;;;4.75;4.35;;;;;;;;;;5027361;28;20061;-75
2022/06/25 09:03:08;;;;;;;5.85;4.50;;;;;;;;;;5024543;28;20061;-74
2022/06/25 09:05:42;;;;;;;4.47;4.10;;;;;;;;;;5024208;28;20484;-75
2022/06/25 09:08:10;;;;;;;4.50;4.10;;;;;;;;;;5024095;28;20042;-75
2022/06/25 09:10:36;;;;;;;5.85;4.53;;;;;;;;;;5041941;28;20041;-75
2022/06/25 09:13:09;;;;;;;4.60;4.20;;;;;;;;;;5025105;28;20033;-75
2022/06/25 09:15:39;;;;;;;4.07;3.67;;;;;;;;;;5025724;28;20030;-75
2022/06/25 09:18:07;;;;;;;4.60;4.20;;;;;;;;;;5023559;28;20076;-75
2022/06/25 09:20:33;;;;;;;4.50;4.10;;;;;;;;;;5029120;28;20067;-75
2022/06/25 09:23:06;;;;;;;4.22;3.97;;;;;;;;;;5024381;28;20065;-75
2022/06/25 09:25:34;;;;;;;4.68;4.18;;;;;;;;;;5028225;28;20056;-75
2022/06/25 09:28:00;;;;;;;4.45;4.10;;;;;;;;;;5021748;28;20398;-74
2022/06/25 09:30:29;;;;;;;4.70;4.30;;;;;;;;;;5028847;28;20029;-75
2022/06/25 09:33:02;;;;;;;4.30;3.90;;;;;;;;;;5026006;28;20033;-75
2022/06/25 09:35:37;;;;;;;4.07;3.78;;;;;;;;;;5022603;28;20467;-75
2022/06/25 09:38:08;;;;;;;5.07;4.40;;;;;;;;;;5026891;28;20040;-75
2022/06/25 09:40:35;;;;;;;5.65;4.25;;;;;;;;;;5025998;28;20039;-75
2022/06/25 09:43:11;;;;;;;4.35;3.95;;;;;;;;;;5022992;28;20090;-75
2022/06/25 09:45:37;;;;;;;4.18;3.83;;;;;;;;;;5021939;28;20124;-75
2022/06/25 09:48:03;;;;;;;4.40;4.10;;;;;;;;;;5024287;28;20052;-75
2022/06/25 09:50:29;;;;;;;4.25;3.88;;;;;;;;;;5027909;28;20021;-75
2022/06/25 09:52:59;;;;;;;4.60;4.20;;;;;;;;;;5024443;28;20033;-75
2022/06/25 09:55:30;;;;;;;4.43;4.03;;;;;;;;;;5034810;28;21583;-75
2022/06/25 09:57:59;;;;;;;4.70;4.40;;;;;;;;;;5028051;28;20030;-75
2022/06/25 10:00:25;;;;;;;4.85;4.00;;;;;;;;;;5025545;28;20034;-75
2022/06/25 10:02:54;;;;;;;4.65;4.18;;;;;;;;;;5024576;28;20060;-75
2022/06/25 10:05:39;;;;;;;5.82;4.40;;;;;;;;;;5024429;28;20025;-75
2022/06/25 10:08:09;;;;;;;4.63;4.22;;;;;;;;;;5027312;28;20421;-74
2022/06/25 10:10:44;;;;;;;4.85;4.50;;;;;;;;;;5023731;28;20494;-75
2022/06/25 10:13:11;;;;;;;4.82;4.43;;;;;;;;;;5025781;28;20404;-74
2022/06/25 10:15:38;;;;;;;4.65;4.00;;;;;;;;;;5026824;28;20496;-75
2022/06/25 10:18:09;;;;;;;5.03;4.47;;;;;;;;;;5023831;28;20056;-74
2022/06/25 10:20:40;;;;;;;6.85;4.40;;;;;;;;;;5020058;28;20034;-75
2022/06/25 10:23:08;;;;;;;4.10;3.72;;;;;;;;;;5025864;28;20040;-74
2022/06/25 10:25:35;;;;;;;5.13;4.13;;;;;;;;;;5025604;28;20037;-74
2022/06/25 10:28:12;;;;;;;5.95;4.78;;;;;;;;;;5030436;28;20057;-75
2022/06/25 10:30:48;;;;;;;4.32;4.03;;;;;;;;;;5026669;28;20025;-74
2022/06/25 10:33:15;;;;;;;4.28;3.88;;;;;;;;;;5021537;28;20055;-75
2022/06/25 10:35:41;;;;;;;4.57;4.18;;;;;;;;;;5025141;28;20033;-74
2022/06/25 10:38:19;;;;;;;5.10;4.20;;;;;;;;;;5022489;28;20037;-76
2022/06/25 10:40:58;;;;;;;5.30;3.73;;;;;;;;;;5022089;28;20461;-75
2022/06/25 10:43:50;;;;;;;5.65;4.10;;;;;;;;;;5025116;28;20288;-75
2022/06/25 10:46:26;;;;;;;4.40;4.00;;;;;;;;;;5017260;28;20041;-75
2022/06/25 10:49:04;;;;;;;4.07;3.70;;;;;;;;;;5021783;28;20068;-75
2022/06/25 10:51:31;;;;;;;;;;;;;;;;;;5020273;28;20061;-75
2022/06/25 10:53:58;;;;;;;4.20;3.90;;;;;;;;;;5022687;28;19916;-75
2022/06/25 10:56:24;;;;;;;4.53;4.22;;;;;;;;;;5024195;28;20038;-75
2022/06/25 10:58:51;;;;;;;4.45;3.70;;;;;;;;;;5023572;28;20053;-75
2022/06/25 11:01:19;;;;;;;4.15;3.78;;;;;;;;;;5026626;28;20045;-74
2022/06/25 11:03:45;;;;;;;4.93;4.25;;;;;;;;;;5025488;28;20032;-75
2022/06/25 11:06:29;;;;;;;5.03;3.95;;;;;;;;;;5027572;28;20034;-74
2022/06/25 11:09:03;;;;;;;4.32;4.10;;;;;;;;;;5026736;28;20116;-74
2022/06/25 11:11:31;;;;;;;4.95;3.90;;;;;;;;;;5026246;28;20527;-74
2022/06/25 11:13:57;;;;;;;4.15;3.95;;;;;;;;;;5028956;28;20029;-73
2022/06/25 11:16:24;;;;;;;4.25;3.95;;;;;;;;;;5028608;28;20102;-74
2022/06/25 11:18:57;;;;;;;4.15;3.80;;;;;;;;;;5024817;28;20037;-73
2022/06/25 11:21:34;;;;;;;5.65;4.22;;;;;;;;;;5028606;28;20037;-73
2022/06/25 11:24:23;;;;;;;6.60;4.20;;;;;;;;;;5025356;28;20033;-74
2022/06/25 11:29:41;;;;;;;5.25;4.07;;;;;;;;;;5027450;28;20473;-73
2022/06/25 11:32:08;;;;;;;4.45;4.10;;;;;;;;;;5029161;28;20083;-73
2022/06/25 11:34:34;;;;;;;4.65;4.28;;;;;;;;;;5028820;28;20061;-73
2022/06/25 11:37:02;;;;;;;6.95;4.40;;;;;;;;;;5026938;28;20041;-73
2022/06/25 11:39:29;;;;;;;4.70;4.30;;;;;;;;;;5034745;28;20040;-73
2022/06/25 11:41:55;;;;;;;5.78;4.32;;;;;;;;;;5029751;28;20042;-73
2022/06/25 11:44:21;;;;;;;4.90;4.40;;;;;;;;;;5032658;28;20095;-73
2022/06/25 11:46:49;;;;;;;5.00;4.38;;;;;;;;;;5024742;28;20045;-73
2022/06/25 11:49:14;;;;;;;4.97;4.57;;;;;;;;;;5024469;28;20037;-73
2022/06/25 11:51:45;;;;;;;4.82;4.30;;;;;;;;;;5021827;28;20048;-73
2022/06/25 11:54:11;;;;;;;4.78;4.53;;;;;;;;;;5025141;28;20033;-73
2022/06/25 11:56:37;;;;;;;4.90;4.53;;;;;;;;;;5026326;28;20484;-73
2022/06/25 11:59:02;;;;;;;4.93;4.53;;;;;;;;;;5021812;28;20091;-73
2022/06/25 12:01:29;;;;;;;4.57;4.22;;;;;;;;;;5031518;28;20037;-73
2022/06/25 12:03:56;;;;;;;4.95;4.50;;;;;;;;;;5025648;28;20107;-73
2022/06/25 12:06:22;;;;;;;5.65;4.55;;;;;;;;;;5025479;28;20038;-73
2022/06/25 12:08:49;;;;;;;4.82;4.43;;;;;;;;;;5024270;28;20534;-73
2022/06/25 12:11:15;;;;;;;4.90;4.60;;;;;;;;;;5025030;28;20091;-73
2022/06/25 12:13:41;;;;;;;5.28;4.88;;;;;;;;;;5026530;28;20033;-72
2022/06/25 12:16:06;;;;;;;4.93;4.60;;;;;;;;;;5026278;28;20041;-73
2022/06/25 12:18:42;;;;;;;4.90;4.50;;;;;;;;;;5028365;28;20036;-73
2022/06/25 12:21:16;;;;;;;5.13;4.82;;;;;;;;;;5035873;28;20480;-73
2022/06/25 12:23:56;;;;;;;4.88;4.57;;;;;;;;;;5025405;28;20840;-73
2022/06/25 12:26:27;;;;;;;5.05;4.75;;;;;;;;;;5021411;28;20034;-74
2022/06/25 12:29:03;;;;;;;4.97;4.43;;;;;;;;;;5021930;28;20033;-73
2022/06/25 12:31:29;;;;;;;5.15;4.57;;;;;;;;;;5023600;28;20480;-73
2022/06/25 12:33:55;;;;;;;5.13;4.82;;;;;;;;;;5025997;28;20036;-73
2022/06/25 12:36:25;;;;;;;5.25;4.53;;;;;;;;;;5020073;28;20184;-72
2022/06/25 12:38:50;;;;;;;5.30;4.90;;;;;;;;;;5023179;28;20033;-72
2022/06/25 12:41:16;;;;;;;4.88;4.57;;;;;;;;;;5024112;28;20033;-72
2022/06/25 12:43:46;;;;;;;5.15;4.85;;;;;;;;;;5027283;28;20045;-72
2022/06/25 12:46:13;;;;;;;5.20;4.80;;;;;;;;;;5020250;28;20034;-73
2022/06/25 12:48:38;;;;;;;6.68;5.00;;;;;;;;;;5025974;28;20126;-73
2022/06/25 12:51:15;;;;;;;5.18;4.68;;;;;;;;;;5024098;28;20112;-74
2022/06/25 12:53:43;;;;;;;5.15;4.70;;;;;;;;;;5021643;28;20041;-73
2022/06/25 12:56:10;;;;;;;4.97;4.67;;;;;;;;;;5025948;28;20029;-74
2022/06/25 12:58:38;;;;;;;5.40;4.90;;;;;;;;;;5026535;28;20049;-73
2022/06/25 13:01:36;;;;;;;5.15;4.75;;;;;;;;;;5021653;28;20299;-73
2022/06/25 13:04:02;;;;;;;6.80;5.20;;;;;;;;;;4958005;28;20419;-73
2022/06/25 13:06:28;;;;;;;4.50;4.30;;;;;;;;;;4949087;28;20038;-74
2022/06/25 13:08:53;;;;;;;5.95;4.50;;;;;;;;;;4955098;28;20862;-73
2022/06/25 13:11:22;;;;;;;5.28;4.93;;;;;;;;;;4964919;28;20042;-73
2022/06/25 13:13:49;;;;;;;5.40;4.90;;;;;;;;;;4959564;28;20046;-72
2022/06/25 13:16:15;;;;;;;5.30;5.00;;;;;;;;;;4952563;28;20190;-73
2022/06/25 13:18:42;;;;;;;4.93;4.65;;;;;;;;;;4963628;28;20109;-73
2022/06/25 13:21:09;;;;;;;5.25;4.85;;;;;;;;;;4963714;28;20634;-74
2022/06/25 13:23:34;;;;;;;5.85;5.00;;;;;;;;;;4957243;28;20113;-73
2022/06/25 13:26:00;;;;;;;5.57;5.18;;;;;;;;;;4964688;28;20055;-73
2022/06/25 13:28:26;;;;;;;6.78;4.70;;;;;;;;;;4962921;28;20118;-73
2022/06/25 13:30:52;;;;;;;5.22;4.93;;;;;;;;;;4958073;28;20438;-72
2022/06/25 13:33:19;;;;;;;5.13;4.82;;;;;;;;;;4951020;28;20058;-73
2022/06/25 13:35:45;;;;;;;4.75;4.45;;;;;;;;;;4944072;28;20149;-72
2022/06/25 13:38:11;;;;;;;5.20;4.90;;;;;;;;;;4964801;28;20122;-73
2022/06/25 13:40:36;;;;;;;5.07;4.68;;;;;;;;;;5012085;28;20140;-74
2022/06/25 13:43:03;;;;;;;5.38;4.97;;;;;;;;;;5029091;28;20025;-73
2022/06/25 13:45:29;;;;;;;5.20;4.90;;;;;;;;;;5033162;28;20041;-73
2022/06/25 13:47:54;;;;;;;5.47;5.03;;;;;;;;;;5034623;28;20033;-73
2022/06/25 13:50:20;;;;;;;4.95;4.65;;;;;;;;;;5034920;28;20035;-74
2022/06/25 13:52:45;;;;;;;5.00;4.50;;;;;;;;;;5032277;28;20535;-73
2022/06/25 13:55:11;;;;;;;4.45;4.25;;;;;;;;;;5024505;28;20063;-74
2022/06/25 13:57:37;;;;;;;4.88;4.57;;;;;;;;;;5032600;28;20484;-73
2022/06/25 14:00:05;;;;;;;4.72;4.38;;;;;;;;;;5038128;28;20029;-72
2022/06/25 14:02:34;;;;;;;5.13;4.80;;;;;;;;;;5032687;28;20044;-73
2022/06/25 14:05:00;;;;;;;5.10;4.80;;;;;;;;;;5027002;28;20035;-72
2022/06/25 14:07:25;;;;;;;5.45;4.68;;;;;;;;;;5021514;28;20037;-73
2022/06/25 14:09:51;;;;;;;4.97;4.68;;;;;;;;;;5030664;28;20590;-75
2022/06/25 14:12:16;;;;;;;5.30;4.82;;;;;;;;;;5037460;28;20029;-74
2022/06/25 14:14:42;;;;;;;5.72;5.00;;;;;;;;;;5032675;28;20033;-74
2022/06/25 14:17:07;;;;;;;10.02;4.80;;;;;;;;;;5035344;28;20033;-75
2022/06/25 14:19:33;;;;;;;5.32;4.50;;;;;;;;;;5032682;28;20041;-76
2022/06/25 14:21:59;;;;;;;4.93;4.53;;;;;;;;;;5032912;28;20025;-75
2022/06/25 14:27:09;;;;;;;4.70;4.38;;;;;;;;;;5025949;28;20049;-77
2022/06/25 14:29:34;;;;;;;5.00;4.70;;;;;;;;;;5033850;28;20025;-75
2022/06/25 14:32:00;;;;;;;4.82;4.50;;;;;;;;;;5032810;28;20116;-74
2022/06/25 14:34:26;;;;;;;4.70;4.40;;;;;;;;;;5032983;28;20037;-76
2022/06/25 14:42:22;;;;;;;5.03;4.72;;;;;;;;;;5035709;28;20041;-75
2022/06/25 14:44:51;;;;;;;4.95;4.63;;;;;;;;;;5027816;28;20037;-76
2022/06/25 14:47:17;;;;;;;4.65;4.45;;;;;;;;;;5001424;28;20045;-78
2022/06/25 14:49:43;;;;;;;4.85;4.55;;;;;;;;;;5032636;28;20033;-74
2022/06/25 14:52:09;;;;;;;5.13;4.82;;;;;;;;;;5029796;28;20037;-76
2022/06/25 14:54:34;;;;;;;5.03;4.72;;;;;;;;;;5030945;28;20574;-75
2022/06/25 14:57:00;;;;;;;5.03;4.72;;;;;;;;;;5031997;28;20033;-76
2022/06/25 14:59:26;;;;;;;5.32;4.85;;;;;;;;;;5027885;28;20037;-75
2022/06/25 15:01:51;;;;;;;5.00;4.70;;;;;;;;;;5031895;28;20032;-76
2022/06/25 15:04:17;;;;;;;5.70;5.30;;;;;;;;;;5029776;28;20412;-76
2022/06/25 15:06:43;;;;;;;5.30;4.97;;;;;;;;;;5031966;28;20090;-75
2022/06/25 15:09:09;;;;;;;5.00;4.70;;;;;;;;;;5028957;28;20033;-76
2022/06/25 15:11:35;;;;;;;5.00;4.60;;;;;;;;;;5028740;28;20037;-74